sensor_id;sensor_type;location;lat;lon;timestamp;P1;durP1;ratioP1;P2;durP2;ratioP2
1467;SDS011;727;48.892;9.544;2022-12-17T00:00:19;25.55;;;16.73;;
1467;SDS011;727;48.892;9.544;2022-12-17T00:03:03;29.08;;;18.08;;
1467;SDS011;727;48.892;9.544;2022-12-17T00:05:50;29.05;;;18.65;;
1467;SDS011;727;48.892;9.544;2022-12-17T00:08:35;22.02;;;17.75;;
1467;SDS011;727;48.892;9.544;2022-12-17T00:11:20;25.00;;;18.13;;
1467;SDS011;727;48.892;9.544;2022-12-17T00:14:05;32.22;;;18.98;;
1467;SDS011;727;48.892;9.544;2022-12-17T00:16:49;31.20;;;19.13;;
1467;SDS011;727;48.892;9.544;2022-12-17T00:19:33;21.42;;;16.73;;
1467;SDS011;727;48.892;9.544;2022-12-17T00:22:17;34.00;;;18.63;;
1467;SDS011;727;48.892;9.544;2022-12-17T00:25:02;27.20;;;19.20;;
1467;SDS011;727;48.892;9.544;2022-12-17T00:27:48;26.15;;;18.67;;
1467;SDS011;727;48.892;9.544;2022-12-17T00:30:32;31.88;;;18.40;;
1467;SDS011;727;48.892;9.544;2022-12-17T00:33:16;28.55;;;17.23;;
1467;SDS011;727;48.892;9.544;2022-12-17T00:36:00;24.08;;;16.65;;
1467;SDS011;727;48.892;9.544;2022-12-17T00:38:49;29.17;;;17.70;;
1467;SDS011;727;48.892;9.544;2022-12-17T00:41:34;23.95;;;17.77;;
1467;SDS011;727;48.892;9.544;2022-12-17T00:44:19;22.10;;;17.48;;
1467;SDS011;727;48.892;9.544;2022-12-17T00:47:03;22.95;;;15.98;;
1467;SDS011;727;48.892;9.544;2022-12-17T00:49:47;23.50;;;16.90;;
1467;SDS011;727;48.892;9.544;2022-12-17T00:52:31;30.75;;;19.95;;
1467;SDS011;727;48.892;9.544;2022-12-17T00:55:16;27.15;;;18.70;;
1467;SDS011;727;48.892;9.544;2022-12-17T00:58:00;26.63;;;19.35;;
1467;SDS011;727;48.892;9.544;2022-12-17T01:01:00;32.45;;;18.75;;
1467;SDS011;727;48.892;9.544;2022-12-17T01:03:44;26.92;;;18.88;;
1467;SDS011;727;48.892;9.544;2022-12-17T01:06:29;40.80;;;21.00;;
1467;SDS011;727;48.892;9.544;2022-12-17T01:09:13;33.85;;;20.60;;
1467;SDS011;727;48.892;9.544;2022-12-17T01:11:57;37.80;;;22.45;;
1467;SDS011;727;48.892;9.544;2022-12-17T01:14:41;33.28;;;21.65;;
1467;SDS011;727;48.892;9.544;2022-12-17T01:17:27;30.38;;;19.40;;
1467;SDS011;727;48.892;9.544;2022-12-17T01:20:19;36.90;;;23.23;;
1467;SDS011;727;48.892;9.544;2022-12-17T01:23:05;33.50;;;22.60;;
1467;SDS011;727;48.892;9.544;2022-12-17T01:25:53;31.65;;;21.20;;
1467;SDS011;727;48.892;9.544;2022-12-17T01:28:38;36.30;;;20.17;;
1467;SDS011;727;48.892;9.544;2022-12-17T01:31:22;35.22;;;23.50;;
1467;SDS011;727;48.892;9.544;2022-12-17T01:34:07;40.53;;;26.08;;
1467;SDS011;727;48.892;9.544;2022-12-17T01:36:52;35.95;;;24.50;;
1467;SDS011;727;48.892;9.544;2022-12-17T01:39:36;25.85;;;18.10;;
1467;SDS011;727;48.892;9.544;2022-12-17T01:42:20;28.00;;;20.67;;
1467;SDS011;727;48.892;9.544;2022-12-17T01:45:05;30.58;;;20.25;;
1467;SDS011;727;48.892;9.544;2022-12-17T01:47:55;36.22;;;19.30;;
1467;SDS011;727;48.892;9.544;2022-12-17T01:50:44;25.80;;;19.98;;
1467;SDS011;727;48.892;9.544;2022-12-17T01:53:32;29.80;;;22.13;;
1467;SDS011;727;48.892;9.544;2022-12-17T01:56:19;28.08;;;19.60;;
1467;SDS011;727;48.892;9.544;2022-12-17T01:59:03;31.90;;;21.92;;
1467;SDS011;727;48.892;9.544;2022-12-17T02:01:58;27.77;;;19.75;;
1467;SDS011;727;48.892;9.544;2022-12-17T02:04:42;36.97;;;22.35;;
1467;SDS011;727;48.892;9.544;2022-12-17T02:07:41;29.70;;;19.27;;
1467;SDS011;727;48.892;9.544;2022-12-17T02:10:32;30.75;;;21.92;;
1467;SDS011;727;48.892;9.544;2022-12-17T02:13:24;29.67;;;20.98;;
1467;SDS011;727;48.892;9.544;2022-12-17T02:16:16;31.05;;;20.48;;
1467;SDS011;727;48.892;9.544;2022-12-17T02:19:05;30.10;;;20.55;;
1467;SDS011;727;48.892;9.544;2022-12-17T02:22:00;28.25;;;19.45;;
1467;SDS011;727;48.892;9.544;2022-12-17T02:24:55;30.05;;;19.75;;
1467;SDS011;727;48.892;9.544;2022-12-17T02:27:47;26.95;;;19.67;;
1467;SDS011;727;48.892;9.544;2022-12-17T02:30:31;28.23;;;18.17;;
1467;SDS011;727;48.892;9.544;2022-12-17T02:33:16;36.00;;;19.40;;
1467;SDS011;727;48.892;9.544;2022-12-17T02:36:02;27.23;;;18.83;;
1467;SDS011;727;48.892;9.544;2022-12-17T02:38:48;31.58;;;20.65;;
1467;SDS011;727;48.892;9.544;2022-12-17T02:41:34;26.55;;;19.00;;
1467;SDS011;727;48.892;9.544;2022-12-17T02:44:25;30.67;;;21.48;;
1467;SDS011;727;48.892;9.544;2022-12-17T02:47:10;28.25;;;19.23;;
1467;SDS011;727;48.892;9.544;2022-12-17T02:49:57;21.15;;;17.45;;
1467;SDS011;727;48.892;9.544;2022-12-17T02:52:57;26.67;;;17.67;;
1467;SDS011;727;48.892;9.544;2022-12-17T02:55:42;23.20;;;17.33;;
1467;SDS011;727;48.892;9.544;2022-12-17T02:58:27;29.10;;;19.65;;
1467;SDS011;727;48.892;9.544;2022-12-17T03:01:13;25.77;;;18.13;;
1467;SDS011;727;48.892;9.544;2022-12-17T03:03:57;22.98;;;16.73;;
1467;SDS011;727;48.892;9.544;2022-12-17T03:06:41;23.67;;;18.42;;
1467;SDS011;727;48.892;9.544;2022-12-17T03:09:25;28.15;;;18.20;;
1467;SDS011;727;48.892;9.544;2022-12-17T03:12:09;33.67;;;18.10;;
1467;SDS011;727;48.892;9.544;2022-12-17T03:14:53;30.52;;;20.13;;
1467;SDS011;727;48.892;9.544;2022-12-17T03:17:39;29.45;;;18.05;;
1467;SDS011;727;48.892;9.544;2022-12-17T03:20:23;22.30;;;18.95;;
1467;SDS011;727;48.892;9.544;2022-12-17T03:23:08;25.73;;;18.65;;
1467;SDS011;727;48.892;9.544;2022-12-17T03:25:56;29.40;;;19.52;;
1467;SDS011;727;48.892;9.544;2022-12-17T03:28:40;28.10;;;19.48;;
1467;SDS011;727;48.892;9.544;2022-12-17T03:31:24;31.45;;;18.58;;
1467;SDS011;727;48.892;9.544;2022-12-17T03:34:15;30.92;;;19.25;;
1467;SDS011;727;48.892;9.544;2022-12-17T03:37:00;31.58;;;23.08;;
1467;SDS011;727;48.892;9.544;2022-12-17T03:39:44;39.17;;;23.70;;
1467;SDS011;727;48.892;9.544;2022-12-17T03:42:28;40.08;;;24.35;;
1467;SDS011;727;48.892;9.544;2022-12-17T03:45:12;48.25;;;24.25;;
1467;SDS011;727;48.892;9.544;2022-12-17T03:48:03;40.60;;;27.20;;
1467;SDS011;727;48.892;9.544;2022-12-17T03:50:50;40.80;;;25.83;;
1467;SDS011;727;48.892;9.544;2022-12-17T03:53:34;37.53;;;25.42;;
1467;SDS011;727;48.892;9.544;2022-12-17T03:56:18;37.47;;;23.02;;
1467;SDS011;727;48.892;9.544;2022-12-17T03:59:02;36.00;;;23.70;;
1467;SDS011;727;48.892;9.544;2022-12-17T04:01:50;44.22;;;27.05;;
1467;SDS011;727;48.892;9.544;2022-12-17T04:04:34;36.65;;;25.52;;
1467;SDS011;727;48.892;9.544;2022-12-17T04:07:19;38.40;;;24.00;;
1467;SDS011;727;48.892;9.544;2022-12-17T04:10:03;43.10;;;24.48;;
1467;SDS011;727;48.892;9.544;2022-12-17T04:12:47;40.30;;;24.42;;
1467;SDS011;727;48.892;9.544;2022-12-17T04:15:32;41.13;;;25.77;;
1467;SDS011;727;48.892;9.544;2022-12-17T04:18:16;43.33;;;25.63;;
1467;SDS011;727;48.892;9.544;2022-12-17T04:21:00;37.63;;;25.58;;
1467;SDS011;727;48.892;9.544;2022-12-17T04:23:45;36.72;;;24.30;;
1467;SDS011;727;48.892;9.544;2022-12-17T04:26:29;38.17;;;24.27;;
1467;SDS011;727;48.892;9.544;2022-12-17T04:29:14;51.28;;;26.13;;
1467;SDS011;727;48.892;9.544;2022-12-17T04:31:58;45.95;;;26.90;;
1467;SDS011;727;48.892;9.544;2022-12-17T04:34:42;52.70;;;28.20;;
1467;SDS011;727;48.892;9.544;2022-12-17T04:37:26;36.85;;;24.13;;
1467;SDS011;727;48.892;9.544;2022-12-17T04:40:12;49.15;;;28.50;;
1467;SDS011;727;48.892;9.544;2022-12-17T04:42:56;38.05;;;25.38;;
1467;SDS011;727;48.892;9.544;2022-12-17T04:45:48;36.33;;;23.23;;
1467;SDS011;727;48.892;9.544;2022-12-17T04:48:33;38.40;;;23.10;;
1467;SDS011;727;48.892;9.544;2022-12-17T04:51:13;31.27;;;20.35;;
1467;SDS011;727;48.892;9.544;2022-12-17T04:53:58;32.55;;;19.52;;
1467;SDS011;727;48.892;9.544;2022-12-17T04:56:43;42.40;;;23.00;;
1467;SDS011;727;48.892;9.544;2022-12-17T04:59:27;39.63;;;23.77;;
1467;SDS011;727;48.892;9.544;2022-12-17T05:02:11;34.83;;;19.73;;
1467;SDS011;727;48.892;9.544;2022-12-17T05:04:55;34.13;;;21.73;;
1467;SDS011;727;48.892;9.544;2022-12-17T05:07:39;30.52;;;21.08;;
1467;SDS011;727;48.892;9.544;2022-12-17T05:10:23;27.98;;;20.15;;
1467;SDS011;727;48.892;9.544;2022-12-17T05:13:11;42.78;;;21.38;;
1467;SDS011;727;48.892;9.544;2022-12-17T05:15:55;33.90;;;21.88;;
1467;SDS011;727;48.892;9.544;2022-12-17T05:18:40;34.20;;;21.00;;
1467;SDS011;727;48.892;9.544;2022-12-17T05:21:24;36.08;;;22.20;;
1467;SDS011;727;48.892;9.544;2022-12-17T05:24:08;36.58;;;22.33;;
1467;SDS011;727;48.892;9.544;2022-12-17T05:26:53;32.80;;;20.33;;
1467;SDS011;727;48.892;9.544;2022-12-17T05:29:38;36.28;;;22.83;;
1467;SDS011;727;48.892;9.544;2022-12-17T05:32:22;28.17;;;18.35;;
1467;SDS011;727;48.892;9.544;2022-12-17T05:35:07;29.33;;;18.75;;
1467;SDS011;727;48.892;9.544;2022-12-17T05:37:51;31.38;;;20.08;;
1467;SDS011;727;48.892;9.544;2022-12-17T05:40:35;32.45;;;20.38;;
1467;SDS011;727;48.892;9.544;2022-12-17T05:43:19;32.65;;;22.10;;
1467;SDS011;727;48.892;9.544;2022-12-17T05:46:05;36.13;;;21.15;;
1467;SDS011;727;48.892;9.544;2022-12-17T05:48:49;33.42;;;18.80;;
1467;SDS011;727;48.892;9.544;2022-12-17T05:51:33;29.25;;;18.15;;
1467;SDS011;727;48.892;9.544;2022-12-17T05:54:17;30.98;;;18.85;;
1467;SDS011;727;48.892;9.544;2022-12-17T05:57:01;34.80;;;19.60;;
1467;SDS011;727;48.892;9.544;2022-12-17T05:59:46;34.40;;;18.08;;
1467;SDS011;727;48.892;9.544;2022-12-17T06:02:31;32.75;;;18.52;;
1467;SDS011;727;48.892;9.544;2022-12-17T06:05:16;30.48;;;18.70;;
1467;SDS011;727;48.892;9.544;2022-12-17T06:08:03;25.23;;;17.25;;
1467;SDS011;727;48.892;9.544;2022-12-17T06:10:48;33.28;;;18.98;;
1467;SDS011;727;48.892;9.544;2022-12-17T06:13:32;33.67;;;18.25;;
1467;SDS011;727;48.892;9.544;2022-12-17T06:16:17;39.47;;;19.23;;
1467;SDS011;727;48.892;9.544;2022-12-17T06:19:02;31.63;;;18.65;;
1467;SDS011;727;48.892;9.544;2022-12-17T06:21:46;27.45;;;19.65;;
1467;SDS011;727;48.892;9.544;2022-12-17T06:24:33;38.67;;;18.50;;
1467;SDS011;727;48.892;9.544;2022-12-17T06:27:17;27.40;;;18.15;;
1467;SDS011;727;48.892;9.544;2022-12-17T06:30:02;34.42;;;20.27;;
1467;SDS011;727;48.892;9.544;2022-12-17T06:32:46;28.50;;;18.27;;
1467;SDS011;727;48.892;9.544;2022-12-17T06:35:32;38.55;;;20.38;;
1467;SDS011;727;48.892;9.544;2022-12-17T06:38:16;42.10;;;23.42;;
1467;SDS011;727;48.892;9.544;2022-12-17T06:41:00;34.80;;;20.42;;
1467;SDS011;727;48.892;9.544;2022-12-17T06:43:45;39.03;;;22.85;;
1467;SDS011;727;48.892;9.544;2022-12-17T06:46:26;35.45;;;21.08;;
1467;SDS011;727;48.892;9.544;2022-12-17T06:49:10;43.05;;;22.92;;
1467;SDS011;727;48.892;9.544;2022-12-17T06:51:56;39.28;;;21.80;;
1467;SDS011;727;48.892;9.544;2022-12-17T06:54:49;38.78;;;21.63;;
1467;SDS011;727;48.892;9.544;2022-12-17T06:57:33;37.55;;;21.98;;
1467;SDS011;727;48.892;9.544;2022-12-17T07:00:17;39.88;;;23.70;;
1467;SDS011;727;48.892;9.544;2022-12-17T07:03:01;43.20;;;22.35;;
1467;SDS011;727;48.892;9.544;2022-12-17T07:05:58;47.83;;;24.40;;
1467;SDS011;727;48.892;9.544;2022-12-17T07:08:44;35.33;;;22.90;;
1467;SDS011;727;48.892;9.544;2022-12-17T07:11:28;34.38;;;22.40;;
1467;SDS011;727;48.892;9.544;2022-12-17T07:14:13;35.60;;;22.25;;
1467;SDS011;727;48.892;9.544;2022-12-17T07:16:57;36.80;;;21.40;;
1467;SDS011;727;48.892;9.544;2022-12-17T07:19:41;32.53;;;22.33;;
1467;SDS011;727;48.892;9.544;2022-12-17T07:22:25;35.75;;;21.88;;
1467;SDS011;727;48.892;9.544;2022-12-17T07:25:10;36.28;;;22.67;;
1467;SDS011;727;48.892;9.544;2022-12-17T07:27:55;38.72;;;20.63;;
1467;SDS011;727;48.892;9.544;2022-12-17T07:30:40;44.33;;;24.10;;
1467;SDS011;727;48.892;9.544;2022-12-17T07:33:24;36.42;;;21.10;;
1467;SDS011;727;48.892;9.544;2022-12-17T07:36:08;44.72;;;24.20;;
1467;SDS011;727;48.892;9.544;2022-12-17T07:38:53;42.75;;;23.23;;
1467;SDS011;727;48.892;9.544;2022-12-17T07:41:38;38.90;;;23.02;;
1467;SDS011;727;48.892;9.544;2022-12-17T07:44:22;42.33;;;24.15;;
1467;SDS011;727;48.892;9.544;2022-12-17T07:47:06;45.83;;;28.98;;
1467;SDS011;727;48.892;9.544;2022-12-17T07:49:50;43.97;;;26.35;;
1467;SDS011;727;48.892;9.544;2022-12-17T07:52:35;43.47;;;26.95;;
1467;SDS011;727;48.892;9.544;2022-12-17T07:55:19;44.72;;;26.80;;
1467;SDS011;727;48.892;9.544;2022-12-17T07:58:05;43.42;;;27.92;;
1467;SDS011;727;48.892;9.544;2022-12-17T08:00:53;38.17;;;23.90;;
1467;SDS011;727;48.892;9.544;2022-12-17T08:03:36;42.58;;;27.05;;
1467;SDS011;727;48.892;9.544;2022-12-17T08:06:21;41.08;;;24.60;;
1467;SDS011;727;48.892;9.544;2022-12-17T08:09:05;41.80;;;25.33;;
1467;SDS011;727;48.892;9.544;2022-12-17T08:11:49;46.70;;;23.38;;
1467;SDS011;727;48.892;9.544;2022-12-17T08:14:34;34.60;;;20.77;;
1467;SDS011;727;48.892;9.544;2022-12-17T08:17:18;41.33;;;25.10;;
1467;SDS011;727;48.892;9.544;2022-12-17T08:20:03;45.28;;;25.10;;
1467;SDS011;727;48.892;9.544;2022-12-17T08:22:48;46.08;;;26.75;;
1467;SDS011;727;48.892;9.544;2022-12-17T08:25:32;51.63;;;29.33;;
1467;SDS011;727;48.892;9.544;2022-12-17T08:28:17;51.25;;;28.88;;
1467;SDS011;727;48.892;9.544;2022-12-17T08:31:02;46.80;;;28.90;;
1467;SDS011;727;48.892;9.544;2022-12-17T08:33:47;50.72;;;26.25;;
1467;SDS011;727;48.892;9.544;2022-12-17T08:36:31;60.45;;;28.90;;
1467;SDS011;727;48.892;9.544;2022-12-17T08:39:11;35.10;;;25.92;;
1467;SDS011;727;48.892;9.544;2022-12-17T08:41:56;44.35;;;26.75;;
1467;SDS011;727;48.892;9.544;2022-12-17T08:44:40;42.92;;;25.98;;
1467;SDS011;727;48.892;9.544;2022-12-17T08:47:25;43.40;;;26.77;;
1467;SDS011;727;48.892;9.544;2022-12-17T08:50:10;42.00;;;25.67;;
1467;SDS011;727;48.892;9.544;2022-12-17T08:52:57;43.55;;;29.40;;
1467;SDS011;727;48.892;9.544;2022-12-17T08:55:41;95.38;;;38.45;;
1467;SDS011;727;48.892;9.544;2022-12-17T08:58:26;39.55;;;28.02;;
1467;SDS011;727;48.892;9.544;2022-12-17T09:01:10;42.45;;;25.20;;
1467;SDS011;727;48.892;9.544;2022-12-17T09:03:56;49.42;;;25.95;;
1467;SDS011;727;48.892;9.544;2022-12-17T09:06:40;40.30;;;24.42;;
1467;SDS011;727;48.892;9.544;2022-12-17T09:09:24;49.97;;;25.80;;
1467;SDS011;727;48.892;9.544;2022-12-17T09:12:08;41.90;;;25.15;;
1467;SDS011;727;48.892;9.544;2022-12-17T09:14:52;44.47;;;27.20;;
1467;SDS011;727;48.892;9.544;2022-12-17T09:17:36;37.30;;;23.40;;
1467;SDS011;727;48.892;9.544;2022-12-17T09:20:18;51.88;;;29.23;;
1467;SDS011;727;48.892;9.544;2022-12-17T09:23:02;53.33;;;30.50;;
1467;SDS011;727;48.892;9.544;2022-12-17T09:25:50;41.75;;;27.23;;
1467;SDS011;727;48.892;9.544;2022-12-17T09:28:35;34.67;;;23.40;;
1467;SDS011;727;48.892;9.544;2022-12-17T09:31:19;48.80;;;31.33;;
1467;SDS011;727;48.892;9.544;2022-12-17T09:34:03;48.10;;;26.77;;
1467;SDS011;727;48.892;9.544;2022-12-17T09:36:49;41.88;;;27.73;;
1467;SDS011;727;48.892;9.544;2022-12-17T09:39:33;36.95;;;25.05;;
1467;SDS011;727;48.892;9.544;2022-12-17T09:42:18;50.88;;;28.52;;
1467;SDS011;727;48.892;9.544;2022-12-17T09:45:07;41.10;;;24.13;;
1467;SDS011;727;48.892;9.544;2022-12-17T09:47:57;38.88;;;25.45;;
1467;SDS011;727;48.892;9.544;2022-12-17T09:50:46;45.47;;;28.33;;
1467;SDS011;727;48.892;9.544;2022-12-17T09:53:36;43.80;;;28.70;;
1467;SDS011;727;48.892;9.544;2022-12-17T09:56:26;52.92;;;32.50;;
1467;SDS011;727;48.892;9.544;2022-12-17T09:59:16;54.22;;;32.90;;
1467;SDS011;727;48.892;9.544;2022-12-17T10:02:04;43.35;;;28.35;;
1467;SDS011;727;48.892;9.544;2022-12-17T10:04:54;51.65;;;28.45;;
1467;SDS011;727;48.892;9.544;2022-12-17T10:07:40;45.15;;;26.85;;
1467;SDS011;727;48.892;9.544;2022-12-17T10:10:29;42.65;;;25.98;;
1467;SDS011;727;48.892;9.544;2022-12-17T10:13:15;39.75;;;26.10;;
1467;SDS011;727;48.892;9.544;2022-12-17T10:16:23;49.63;;;29.80;;
1467;SDS011;727;48.892;9.544;2022-12-17T10:19:11;48.70;;;26.65;;
1467;SDS011;727;48.892;9.544;2022-12-17T10:22:05;48.65;;;26.85;;
1467;SDS011;727;48.892;9.544;2022-12-17T10:25:05;52.97;;;30.48;;
1467;SDS011;727;48.892;9.544;2022-12-17T10:28:00;48.05;;;28.42;;
1467;SDS011;727;48.892;9.544;2022-12-17T10:30:48;47.35;;;26.95;;
1467;SDS011;727;48.892;9.544;2022-12-17T10:33:36;42.05;;;26.13;;
1467;SDS011;727;48.892;9.544;2022-12-17T10:36:22;49.42;;;32.13;;
1467;SDS011;727;48.892;9.544;2022-12-17T10:39:12;59.30;;;36.40;;
1467;SDS011;727;48.892;9.544;2022-12-17T10:41:58;49.85;;;33.50;;
1467;SDS011;727;48.892;9.544;2022-12-17T10:44:44;54.38;;;42.58;;
1467;SDS011;727;48.892;9.544;2022-12-17T10:47:28;54.97;;;30.58;;
1467;SDS011;727;48.892;9.544;2022-12-17T10:50:13;49.60;;;30.67;;
1467;SDS011;727;48.892;9.544;2022-12-17T10:52:59;50.20;;;29.95;;
1467;SDS011;727;48.892;9.544;2022-12-17T10:55:57;39.40;;;25.40;;
1467;SDS011;727;48.892;9.544;2022-12-17T10:58:43;44.65;;;29.73;;
1467;SDS011;727;48.892;9.544;2022-12-17T11:01:30;44.67;;;28.08;;
1467;SDS011;727;48.892;9.544;2022-12-17T11:04:23;49.83;;;26.10;;
1467;SDS011;727;48.892;9.544;2022-12-17T11:07:08;39.13;;;25.10;;
1467;SDS011;727;48.892;9.544;2022-12-17T11:09:55;46.17;;;29.80;;
1467;SDS011;727;48.892;9.544;2022-12-17T11:12:43;60.45;;;32.20;;
1467;SDS011;727;48.892;9.544;2022-12-17T11:15:35;43.20;;;27.15;;
1467;SDS011;727;48.892;9.544;2022-12-17T11:18:25;45.28;;;25.80;;
1467;SDS011;727;48.892;9.544;2022-12-17T11:21:14;42.95;;;28.20;;
1467;SDS011;727;48.892;9.544;2022-12-17T11:24:03;42.83;;;25.67;;
1467;SDS011;727;48.892;9.544;2022-12-17T11:26:52;44.78;;;27.60;;
1467;SDS011;727;48.892;9.544;2022-12-17T11:29:38;47.17;;;28.58;;
1467;SDS011;727;48.892;9.544;2022-12-17T11:35:40;44.35;;;26.45;;
1467;SDS011;727;48.892;9.544;2022-12-17T11:38:34;45.03;;;27.88;;
1467;SDS011;727;48.892;9.544;2022-12-17T11:41:24;42.20;;;25.70;;
1467;SDS011;727;48.892;9.544;2022-12-17T11:44:17;42.28;;;27.63;;
1467;SDS011;727;48.892;9.544;2022-12-17T11:47:13;45.53;;;29.95;;
1467;SDS011;727;48.892;9.544;2022-12-17T11:50:10;48.10;;;26.35;;
1467;SDS011;727;48.892;9.544;2022-12-17T11:53:03;47.08;;;28.35;;
1467;SDS011;727;48.892;9.544;2022-12-17T11:55:55;38.72;;;25.83;;
1467;SDS011;727;48.892;9.544;2022-12-17T11:58:45;50.58;;;28.02;;
1467;SDS011;727;48.892;9.544;2022-12-17T12:01:36;48.00;;;29.35;;
1467;SDS011;727;48.892;9.544;2022-12-17T12:04:30;45.03;;;27.23;;
1467;SDS011;727;48.892;9.544;2022-12-17T12:07:29;41.65;;;26.70;;
1467;SDS011;727;48.892;9.544;2022-12-17T12:10:22;46.33;;;26.17;;
1467;SDS011;727;48.892;9.544;2022-12-17T12:13:15;44.13;;;24.55;;
1467;SDS011;727;48.892;9.544;2022-12-17T12:16:05;40.63;;;26.70;;
1467;SDS011;727;48.892;9.544;2022-12-17T12:18:58;44.80;;;25.52;;
1467;SDS011;727;48.892;9.544;2022-12-17T12:21:50;35.88;;;23.52;;
1467;SDS011;727;48.892;9.544;2022-12-17T12:24:47;40.78;;;23.25;;
1467;SDS011;727;48.892;9.544;2022-12-17T12:27:47;42.80;;;23.60;;
1467;SDS011;727;48.892;9.544;2022-12-17T12:30:40;37.30;;;26.08;;
1467;SDS011;727;48.892;9.544;2022-12-17T12:33:43;38.97;;;26.00;;
1467;SDS011;727;48.892;9.544;2022-12-17T12:36:31;40.17;;;25.92;;
1467;SDS011;727;48.892;9.544;2022-12-17T12:39:18;34.63;;;24.25;;
1467;SDS011;727;48.892;9.544;2022-12-17T12:42:07;35.38;;;25.20;;
1467;SDS011;727;48.892;9.544;2022-12-17T12:45:03;37.95;;;25.08;;
1467;SDS011;727;48.892;9.544;2022-12-17T12:47:58;35.60;;;23.70;;
1467;SDS011;727;48.892;9.544;2022-12-17T12:50:49;33.55;;;22.92;;
1467;SDS011;727;48.892;9.544;2022-12-17T12:53:41;34.17;;;25.10;;
1467;SDS011;727;48.892;9.544;2022-12-17T12:56:25;37.40;;;25.27;;
1467;SDS011;727;48.892;9.544;2022-12-17T12:59:14;38.30;;;25.02;;
1467;SDS011;727;48.892;9.544;2022-12-17T13:02:13;35.00;;;24.08;;
1467;SDS011;727;48.892;9.544;2022-12-17T13:05:19;33.97;;;25.08;;
1467;SDS011;727;48.892;9.544;2022-12-17T13:08:00;41.13;;;27.27;;
1467;SDS011;727;48.892;9.544;2022-12-17T13:10:29;39.40;;;28.05;;
1467;SDS011;727;48.892;9.544;2022-12-17T13:12:58;37.97;;;24.40;;
1467;SDS011;727;48.892;9.544;2022-12-17T13:15:39;37.05;;;25.67;;
1467;SDS011;727;48.892;9.544;2022-12-17T13:18:16;38.97;;;26.60;;
1467;SDS011;727;48.892;9.544;2022-12-17T13:20:55;40.35;;;27.08;;
1467;SDS011;727;48.892;9.544;2022-12-17T13:23:25;39.05;;;27.10;;
1467;SDS011;727;48.892;9.544;2022-12-17T13:26:14;39.17;;;27.23;;
1467;SDS011;727;48.892;9.544;2022-12-17T13:28:47;38.08;;;25.75;;
1467;SDS011;727;48.892;9.544;2022-12-17T13:31:25;43.63;;;35.30;;
1467;SDS011;727;48.892;9.544;2022-12-17T13:33:55;33.47;;;24.48;;
1467;SDS011;727;48.892;9.544;2022-12-17T13:36:31;37.08;;;25.70;;
1467;SDS011;727;48.892;9.544;2022-12-17T13:39:05;35.28;;;26.50;;
1467;SDS011;727;48.892;9.544;2022-12-17T13:41:50;33.17;;;25.00;;
1467;SDS011;727;48.892;9.544;2022-12-17T13:44:20;35.70;;;26.45;;
1467;SDS011;727;48.892;9.544;2022-12-17T13:46:50;37.90;;;25.48;;
1467;SDS011;727;48.892;9.544;2022-12-17T13:49:19;37.80;;;27.13;;
1467;SDS011;727;48.892;9.544;2022-12-17T13:51:58;33.50;;;25.58;;
1467;SDS011;727;48.892;9.544;2022-12-17T13:54:26;33.53;;;25.17;;
1467;SDS011;727;48.892;9.544;2022-12-17T13:56:53;40.70;;;29.27;;
1467;SDS011;727;48.892;9.544;2022-12-17T13:59:22;30.35;;;24.95;;
1467;SDS011;727;48.892;9.544;2022-12-17T14:01:49;35.22;;;25.52;;
1467;SDS011;727;48.892;9.544;2022-12-17T14:04:22;50.88;;;35.72;;
1467;SDS011;727;48.892;9.544;2022-12-17T14:06:51;43.83;;;30.00;;
1467;SDS011;727;48.892;9.544;2022-12-17T14:09:20;38.13;;;30.25;;
1467;SDS011;727;48.892;9.544;2022-12-17T14:11:49;34.92;;;28.35;;
1467;SDS011;727;48.892;9.544;2022-12-17T14:14:34;46.80;;;29.48;;
1467;SDS011;727;48.892;9.544;2022-12-17T14:17:02;80.60;;;49.42;;
1467;SDS011;727;48.892;9.544;2022-12-17T14:19:31;64.72;;;43.20;;
1467;SDS011;727;48.892;9.544;2022-12-17T14:21:58;49.92;;;36.00;;
1467;SDS011;727;48.892;9.544;2022-12-17T14:24:26;42.00;;;29.65;;
1467;SDS011;727;48.892;9.544;2022-12-17T14:26:54;41.58;;;30.73;;
1467;SDS011;727;48.892;9.544;2022-12-17T14:29:23;54.85;;;34.78;;
1467;SDS011;727;48.892;9.544;2022-12-17T14:31:52;43.63;;;29.60;;
1467;SDS011;727;48.892;9.544;2022-12-17T14:34:20;48.83;;;34.63;;
1467;SDS011;727;48.892;9.544;2022-12-17T14:36:52;48.00;;;30.95;;
1467;SDS011;727;48.892;9.544;2022-12-17T14:39:22;55.75;;;36.45;;
1467;SDS011;727;48.892;9.544;2022-12-17T14:41:51;62.17;;;36.95;;
1467;SDS011;727;48.892;9.544;2022-12-17T14:44:40;57.10;;;35.42;;
1467;SDS011;727;48.892;9.544;2022-12-17T14:47:16;56.53;;;35.63;;
1467;SDS011;727;48.892;9.544;2022-12-17T14:49:47;47.67;;;33.03;;
1467;SDS011;727;48.892;9.544;2022-12-17T14:52:21;50.75;;;31.52;;
1467;SDS011;727;48.892;9.544;2022-12-17T14:54:55;47.22;;;30.77;;
1467;SDS011;727;48.892;9.544;2022-12-17T14:57:22;50.08;;;31.85;;
1467;SDS011;727;48.892;9.544;2022-12-17T14:59:49;52.42;;;32.10;;
1467;SDS011;727;48.892;9.544;2022-12-17T15:02:20;51.10;;;30.45;;
1467;SDS011;727;48.892;9.544;2022-12-17T15:04:51;48.80;;;29.55;;
1467;SDS011;727;48.892;9.544;2022-12-17T15:07:24;45.63;;;28.70;;
1467;SDS011;727;48.892;9.544;2022-12-17T15:09:51;41.90;;;27.92;;
1467;SDS011;727;48.892;9.544;2022-12-17T15:12:19;48.72;;;31.25;;
1467;SDS011;727;48.892;9.544;2022-12-17T15:14:46;50.65;;;30.25;;
1467;SDS011;727;48.892;9.544;2022-12-17T15:17:14;47.78;;;27.77;;
1467;SDS011;727;48.892;9.544;2022-12-17T15:19:41;45.25;;;26.10;;
1467;SDS011;727;48.892;9.544;2022-12-17T15:22:09;38.70;;;23.88;;
1467;SDS011;727;48.892;9.544;2022-12-17T15:24:42;38.42;;;24.70;;
1467;SDS011;727;48.892;9.544;2022-12-17T15:27:10;37.42;;;23.58;;
1467;SDS011;727;48.892;9.544;2022-12-17T15:29:38;46.30;;;26.88;;
1467;SDS011;727;48.892;9.544;2022-12-17T15:32:05;38.30;;;25.20;;
1467;SDS011;727;48.892;9.544;2022-12-17T15:34:32;45.20;;;26.58;;
1467;SDS011;727;48.892;9.544;2022-12-17T15:36:59;48.33;;;28.95;;
1467;SDS011;727;48.892;9.544;2022-12-17T15:39:26;43.83;;;25.80;;
1467;SDS011;727;48.892;9.544;2022-12-17T15:41:54;40.25;;;25.40;;
1467;SDS011;727;48.892;9.544;2022-12-17T15:44:38;48.67;;;27.17;;
1467;SDS011;727;48.892;9.544;2022-12-17T15:47:05;52.35;;;30.58;;
1467;SDS011;727;48.892;9.544;2022-12-17T15:49:32;49.93;;;31.27;;
1467;SDS011;727;48.892;9.544;2022-12-17T15:51:58;48.33;;;31.63;;
1467;SDS011;727;48.892;9.544;2022-12-17T15:54:25;59.45;;;28.77;;
1467;SDS011;727;48.892;9.544;2022-12-17T15:56:53;50.80;;;30.10;;
1467;SDS011;727;48.892;9.544;2022-12-17T15:59:22;56.13;;;31.63;;
1467;SDS011;727;48.892;9.544;2022-12-17T16:01:49;54.38;;;31.45;;
1467;SDS011;727;48.892;9.544;2022-12-17T16:04:18;58.47;;;33.38;;
1467;SDS011;727;48.892;9.544;2022-12-17T16:06:45;54.33;;;32.42;;
1467;SDS011;727;48.892;9.544;2022-12-17T16:09:11;57.15;;;34.75;;
1467;SDS011;727;48.892;9.544;2022-12-17T16:11:38;64.40;;;34.88;;
1467;SDS011;727;48.892;9.544;2022-12-17T16:14:07;53.72;;;34.17;;
1467;SDS011;727;48.892;9.544;2022-12-17T16:16:33;57.28;;;29.27;;
1467;SDS011;727;48.892;9.544;2022-12-17T16:19:00;49.28;;;29.23;;
1467;SDS011;727;48.892;9.544;2022-12-17T16:21:27;57.30;;;32.65;;
1467;SDS011;727;48.892;9.544;2022-12-17T16:23:54;51.80;;;29.33;;
1467;SDS011;727;48.892;9.544;2022-12-17T16:26:20;61.42;;;33.60;;
1467;SDS011;727;48.892;9.544;2022-12-17T16:28:47;45.60;;;29.40;;
1467;SDS011;727;48.892;9.544;2022-12-17T16:31:15;49.70;;;28.80;;
1467;SDS011;727;48.892;9.544;2022-12-17T16:33:42;39.80;;;25.58;;
1467;SDS011;727;48.892;9.544;2022-12-17T16:36:12;42.90;;;27.42;;
1467;SDS011;727;48.892;9.544;2022-12-17T16:38:41;55.72;;;32.03;;